Time;durP1;ratioP1;P1;durP2;ratioP2;P2;SDS_P1;SDS_P2;PMS_P1;PMS_P2;Temp;Humidity;BMP_temperature;BMP_pressure;BME280_temperature;BME280_humidity;BME280_pressure;Samples;Min_cycle;Max_cycle;Signal;HPM_P1;HPM_P2
2023/10/27 00:00:15;;;;;;;4.10;2.67;;;;;;;15.50;100.00;63599.50;5027518;28;20558;-82
2023/10/27 00:02:43;;;;;;;6.72;3.05;;;;;;;15.29;100.00;63580.22;5033297;28;20499;-82
2023/10/27 00:05:11;;;;;;;2.97;2.67;;;;;;;15.45;100.00;63594.31;5011735;28;20203;-82
2023/10/27 00:07:38;;;;;;;8.50;2.83;;;;;;;15.45;100.00;63592.25;5013819;28;20198;-82
2023/10/27 00:10:07;;;;;;;7.35;2.55;;;;;;;15.48;100.00;63595.38;5014396;28;20503;-83
2023/10/27 00:12:34;;;;;;;5.55;2.58;;;;;;;15.41;100.00;63593.22;5019702;28;20198;-81
2023/10/27 00:15:01;;;;;;;3.28;2.38;;;;;;;15.50;100.00;63599.50;5032976;28;20201;-83
2023/10/27 00:17:28;;;;;;;8.73;3.28;;;;;;;15.50;100.00;63602.06;5032761;28;20206;-81
2023/10/27 00:19:57;;;;;;;3.38;2.25;;;;;;;15.51;100.00;63598.50;5032116;28;20245;-81
2023/10/27 00:22:25;;;;;;;14.07;2.97;;;;;;;15.59;100.00;63611.94;5034324;28;20240;-82
2023/10/27 00:24:52;;;;;;;4.47;2.30;;;;;;;15.60;100.00;63615.03;5030703;28;20241;-82
2023/10/27 00:27:20;;;;;;;6.53;2.58;;;;;;;15.54;100.00;63601.63;5028940;28;20204;-82
2023/10/27 00:29:47;;;;;;;6.38;3.10;;;;;;;15.55;100.00;63602.16;5032354;28;20445;-81
2023/10/27 00:32:15;;;;;;;4.55;2.50;;;;;;;15.29;100.00;63578.16;5032314;28;20218;-81
2023/10/27 00:34:42;;;;;;;6.07;2.50;;;;;;;15.49;100.00;63601.56;5031700;28;20229;-84
2023/10/27 00:37:10;;;;;;;3.65;2.17;;;;;;;15.47;100.00;63596.38;5012920;28;20294;-83
2023/10/27 00:39:38;;;;;;;5.95;2.80;;;;;;;15.55;100.00;63602.66;5028435;28;20207;-83
2023/10/27 00:42:06;;;;;;;2.65;2.28;;;;;;;15.51;100.00;63597.97;5030347;28;20224;-81
2023/10/27 00:44:33;;;;;;;6.05;2.58;;;;;;;15.44;100.00;63588.13;5031208;28;20416;-83
2023/10/27 00:47:01;;;;;;;4.20;2.17;;;;;;;15.47;100.00;63598.94;5033366;28;20530;-84
2023/10/27 00:49:29;;;;;;;4.72;3.10;;;;;;;15.47;100.00;63596.38;5030289;28;20246;-83
2023/10/27 00:51:56;;;;;;;5.13;2.80;;;;;;;15.47;100.00;63596.38;5030818;28;20218;-86
2023/10/27 00:54:26;;;;;;;3.58;2.20;;;;;;;15.24;100.00;63575.03;5029556;28;20268;-83
2023/10/27 00:56:55;;;;;;;6.63;3.35;;;;;;;15.43;100.00;63592.75;5012265;28;20223;-83
2023/10/27 00:59:22;;;;;;;7.25;3.38;;;;;;;15.42;100.00;63588.63;5025371;28;20190;-83
2023/10/27 01:01:49;;;;;;;7.05;2.70;;;;;;;15.41;100.00;63585.03;5032457;28;20225;-83
2023/10/27 01:04:16;;;;;;;4.32;2.72;;;;;;;15.15;100.00;63558.50;5029410;28;20199;-85
2023/10/27 01:06:44;;;;;;;2.83;2.63;;;;;;;15.27;100.00;63575.59;5031333;28;20214;-83
2023/10/27 01:09:11;;;;;;;6.65;2.70;;;;;;;15.29;100.00;63580.22;5031159;28;20214;-81
2023/10/27 01:11:41;;;;;;;7.80;2.80;;;;;;;15.06;100.00;63554.28;5032718;28;20218;-82
2023/10/27 01:14:08;;;;;;;3.53;2.60;;;;;;;15.14;100.00;63556.94;5028884;28;20249;-85
2023/10/27 01:16:34;;;;;;;3.70;2.13;;;;;;;15.22;100.00;63570.38;5024578;28;20511;-82
2023/10/27 01:19:02;;;;;;;5.53;2.90;;;;;;;15.21;100.00;63566.78;5031406;28;20195;-82
2023/10/27 01:21:29;;;;;;;9.85;2.75;;;;;;;15.28;100.00;63574.56;5031901;28;20230;-83
2023/10/27 01:23:57;;;;;;;6.05;3.05;;;;;;;15.21;100.00;63569.34;5017674;28;20203;-83
2023/10/27 01:26:25;;;;;;;6.63;2.97;;;;;;;15.22;100.00;63572.94;5020084;28;20241;-83
2023/10/27 01:28:52;;;;;;;7.30;3.17;;;;;;;15.05;100.00;63551.19;5032525;28;20253;-81
2023/10/27 01:31:19;;;;;;;6.15;3.08;;;;;;;15.09;100.00;63559.97;5030454;28;20222;-83
2023/10/27 01:33:46;;;;;;;4.95;2.92;;;;;;;14.93;100.00;63543.31;5022355;28;20226;-83
2023/10/27 01:36:13;;;;;;;6.60;3.28;;;;;;;15.06;100.00;63554.78;5029487;28;20229;-83
2023/10/27 01:38:40;;;;;;;7.50;2.67;;;;;;;14.96;100.00;63546.97;5028630;28;20254;-82
2023/10/27 01:41:08;;;;;;;4.47;3.13;;;;;;;15.02;100.00;63547.56;5031234;28;20454;-83
2023/10/27 01:43:35;;;;;;;11.38;2.92;;;;;;;14.92;100.00;63537.16;5032481;28;20198;-82
2023/10/27 01:46:02;;;;;;;10.93;4.00;;;;;;;14.93;100.00;63540.75;5031730;28;20281;-84
2023/10/27 01:48:30;;;;;;;7.15;3.25;;;;;;;14.88;100.00;63538.66;5026545;28;20209;-84
2023/10/27 01:50:57;;;;;;;4.32;3.88;;;;;;;14.98;100.00;63549.03;5030968;28;20540;-84
2023/10/27 01:53:24;;;;;;;12.88;3.55;;;;;;;14.83;100.00;63527.81;5021252;28;20226;-82
2023/10/27 01:55:51;;;;;;;7.05;3.78;;;;;;;14.87;100.00;63532.50;5027556;28;20229;-84
2023/10/27 01:58:19;;;;;;;5.65;3.22;;;;;;;14.82;100.00;63527.28;5026484;28;20211;-83
2023/10/27 02:00:46;;;;;;;4.03;3.25;;;;;;;15.12;100.00;63565.13;5010831;28;20219;-84
2023/10/27 02:03:13;;;;;;;4.43;3.05;;;;;;;15.11;100.00;63564.09;5019823;28;20199;-81
2023/10/27 02:05:44;;;;;;;7.55;2.75;;;;;;;15.21;100.00;63569.88;5016551;28;20281;-82
2023/10/27 02:08:11;;;;;;;6.90;2.70;;;;;;;15.30;100.00;63581.78;5029720;28;20217;-81
2023/10/27 02:10:38;;;;;;;5.20;2.85;;;;;;;15.40;100.00;63587.06;5030193;28;20538;-82
2023/10/27 02:13:05;;;;;;;4.57;2.70;;;;;;;15.36;100.00;63587.50;5015154;28;20210;-84
2023/10/27 02:15:34;;;;;;;2.97;2.55;;;;;;;15.65;100.00;63615.59;5024389;28;20222;-82
2023/10/27 02:18:01;;;;;;;4.82;2.20;;;;;;;15.93;100.00;63649.34;5029127;28;20274;-84
2023/10/27 02:20:30;;;;;;;3.15;1.90;;;;;;;16.16;100.00;63666.09;5029750;28;20226;-82
2023/10/27 02:22:56;;;;;;;2.83;1.88;;;;;;;16.31;100.00;63683.72;5030605;28;20225;-82
2023/10/27 02:25:24;;;;;;;4.47;2.70;;;;;;;16.53;100.00;63706.63;5029735;28;20317;-81
2023/10/27 02:27:51;;;;;;;2.50;2.13;;;;;;;16.73;100.00;63727.44;5027397;28;20511;-83
2023/10/27 02:30:18;;;;;;;5.43;3.00;;;;;;;16.60;100.00;63711.34;5031062;28;20218;-81
2023/10/27 02:32:46;;;;;;;5.07;2.35;;;;;;;16.56;100.00;63711.81;5029714;28;20210;-81
2023/10/27 02:35:13;;;;;;;5.38;2.30;;;;;;;16.58;100.00;63711.31;5031353;28;20245;-81
2023/10/27 02:37:41;;;;;;;3.30;2.50;;;;;;;16.69;100.00;63720.72;5029537;28;20244;-82
2023/10/27 02:40:09;;;;;;;3.13;2.20;;;;;;;16.49;100.00;63702.47;5028222;28;20198;-84
2023/10/27 02:42:38;;;;;;;6.80;3.78;;;;;;;16.40;100.00;63692.56;5029149;28;20209;-82
2023/10/27 02:45:07;;;;;;;6.40;2.45;;;;;;;16.17;100.00;63666.59;5031503;28;20229;-82
2023/10/27 02:47:34;;;;;;;4.30;2.70;;;;;;;16.09;100.00;63660.84;5029316;28;20221;-83
2023/10/27 02:50:04;;;;;;;7.47;3.15;;;;;;;16.14;100.00;63663.47;5031131;28;20276;-83
2023/10/27 02:52:31;;;;;;;6.57;3.00;;;;;;;16.14;100.00;63663.47;5011393;28;20241;-82
2023/10/27 02:54:59;;;;;;;3.42;2.55;;;;;;;16.17;100.00;63669.16;5019136;28;20222;-83
2023/10/27 02:57:25;;;;;;;6.13;2.53;;;;;;;15.95;100.00;63644.25;5025582;28;20266;-81
2023/10/27 02:59:53;;;;;;;6.68;3.22;;;;;;;16.22;100.00;63676.44;5018150;28;20415;-84
2023/10/27 03:02:20;;;;;;;5.50;2.70;;;;;;;16.21;100.00;63673.31;5032727;28;20236;-82
2023/10/27 03:04:47;;;;;;;7.85;2.45;;;;;;;16.05;100.00;63654.13;5014414;28;20274;-82
2023/10/27 03:07:17;;;;;;;6.90;2.42;;;;;;;16.08;100.00;63655.19;5029737;28;20224;-83
2023/10/27 03:09:44;;;;;;;4.55;2.78;;;;;;;15.94;100.00;63648.34;5032144;28;20233;-83
2023/10/27 03:12:10;;;;;;;8.52;3.63;;;;;;;15.95;100.00;63646.81;5031307;28;20506;-83
2023/10/27 03:14:38;;;;;;;5.35;3.00;;;;;;;15.97;100.00;63650.94;5030459;28;20503;-82
2023/10/27 03:17:05;;;;;;;7.72;3.30;;;;;;;15.80;100.00;63633.78;5029461;28;20222;-85
2023/10/27 03:19:32;;;;;;;7.25;2.90;;;;;;;15.79;100.00;63629.66;5028018;28;20234;-83
2023/10/27 03:21:59;;;;;;;8.90;3.67;;;;;;;15.75;100.00;63625.50;5031135;28;20241;-83
2023/10/27 03:24:27;;;;;;;9.68;3.53;;;;;;;15.68;100.00;63618.75;5029288;28;20214;-83
2023/10/27 03:26:55;;;;;;;5.30;3.17;;;;;;;15.63;100.00;63613.53;5030608;28;20293;-81
2023/10/27 03:29:22;;;;;;;8.30;3.67;;;;;;;15.31;100.00;63579.72;5016569;28;20194;-82
2023/10/27 03:31:50;;;;;;;9.02;4.47;;;;;;;15.30;100.00;63581.78;5009541;28;20294;-82
2023/10/27 03:34:17;;;;;;;4.32;3.03;;;;;;;15.29;100.00;63582.78;5029851;28;20245;-84
2023/10/27 03:36:44;;;;;;;6.93;3.53;;;;;;;15.12;100.00;63557.94;5030159;28;20238;-83
2023/10/27 03:39:11;;;;;;;7.10;3.15;;;;;;;15.07;100.00;63557.88;5026553;28;20203;-83
2023/10/27 03:41:45;;;;;;;7.60;3.08;;;;;;;14.96;100.00;63541.84;5030831;28;20214;-83
2023/10/27 03:44:12;;;;;;;8.65;3.30;;;;;;;15.01;100.00;63547.03;5018360;28;20199;-82
2023/10/27 03:46:40;;;;;;;3.33;3.03;;;;;;;14.94;100.00;63544.38;5014903;28;20226;-82
2023/10/27 03:49:07;;;;;;;5.80;3.67;;;;;;;14.91;100.00;63536.13;5032097;28;20198;-82
2023/10/27 03:51:34;;;;;;;6.00;3.17;;;;;;;14.86;100.00;63528.88;5031240;28;20245;-82
2023/10/27 03:54:02;;;;;;;6.70;3.75;;;;;;;14.79;100.00;63526.75;5016763;28;20258;-82
2023/10/27 03:56:31;;;;;;;5.05;3.45;;;;;;;14.70;100.00;63514.81;5031787;28;20249;-82
2023/10/27 03:59:01;;;;;;;10.70;4.07;;;;;;;14.79;100.00;63526.75;5030420;28;20202;-84
2023/10/27 04:01:28;;;;;;;5.57;2.88;;;;;;;14.76;100.00;63525.66;5024386;28;20218;-84
2023/10/27 04:03:55;;;;;;;5.93;3.40;;;;;;;14.68;100.00;63515.31;5030996;28;20198;-83
2023/10/27 04:06:23;;;;;;;10.82;4.50;;;;;;;14.69;100.00;63513.78;5032878;28;20282;-82
2023/10/27 04:08:50;;;;;;;8.85;4.07;;;;;;;14.68;100.00;63512.75;5030276;28;20213;-81
2023/10/27 04:11:17;;;;;;;5.25;3.67;;;;;;;14.66;100.00;63507.59;5031842;28;20221;-83
2023/10/27 04:13:44;;;;;;;8.40;4.22;;;;;;;14.63;100.00;63515.25;5023535;28;20202;-83
2023/10/27 04:16:13;;;;;;;10.10;3.70;;;;;;;14.63;100.00;63510.13;5030975;28;20241;-86
2023/10/27 04:18:40;;;;;;;5.90;3.25;;;;;;;14.63;100.00;63505.00;5029824;28;20369;-82
2023/10/27 04:21:07;;;;;;;4.38;3.20;;;;;;;14.53;100.00;63497.16;5031348;28;20285;-84
2023/10/27 04:23:34;;;;;;;5.85;3.80;;;;;;;14.67;100.00;63511.72;5034752;28;20183;-83
2023/10/27 04:26:01;;;;;;;8.25;4.00;;;;;;;14.63;100.00;63507.56;5034163;28;20261;-82
2023/10/27 04:28:28;;;;;;;9.65;4.05;;;;;;;14.45;100.00;63488.34;5030521;28;20242;-83
2023/10/27 04:30:55;;;;;;;9.07;4.00;;;;;;;14.61;100.00;63508.06;5028076;28;20222;-82
2023/10/27 04:33:24;;;;;;;4.85;3.85;;;;;;;14.62;100.00;63506.53;5031265;28;20206;-82
2023/10/27 04:35:52;;;;;;;5.65;3.10;;;;;;;14.55;100.00;63503.84;5032229;28;20238;-83
2023/10/27 04:38:19;;;;;;;6.13;3.50;;;;;;;14.47;100.00;63490.41;5030292;28;20198;-83
2023/10/27 04:40:46;;;;;;;9.07;3.95;;;;;;;14.52;100.00;63500.75;5025210;28;20258;-82
2023/10/27 04:43:13;;;;;;;4.57;4.07;;;;;;;14.47;100.00;63490.41;5032510;28;20205;-82
2023/10/27 04:45:40;;;;;;;5.30;3.80;;;;;;;14.40;100.00;63485.72;5030205;28;20281;-81
2023/10/27 04:48:07;;;;;;;5.63;3.40;;;;;;;14.39;100.00;63487.25;5029892;28;20214;-81
2023/10/27 04:50:36;;;;;;;4.10;3.53;;;;;;;14.36;100.00;63481.56;5029847;28;20286;-82
2023/10/27 04:53:03;;;;;;;8.30;3.97;;;;;;;14.44;100.00;63489.88;5034199;28;20213;-81
2023/10/27 04:55:30;;;;;;;5.65;3.25;;;;;;;14.46;100.00;63494.50;5033933;28;20266;-81
2023/10/27 04:57:58;;;;;;;7.25;3.50;;;;;;;14.58;100.00;63499.78;5016079;28;20199;-80
2023/10/27 05:00:24;;;;;;;6.43;3.55;;;;;;;14.59;100.00;63505.97;5025776;28;20245;-82
2023/10/27 05:02:53;;;;;;;6.05;4.78;;;;;;;14.64;100.00;63500.91;5012211;28;20215;-81
2023/10/27 05:05:20;;;;;;;9.68;3.33;;;;;;;14.65;100.00;63514.25;5017476;28;20218;-84
2023/10/27 05:07:49;;;;;;;6.53;3.55;;;;;;;14.63;100.00;63507.03;5035708;28;20277;-81
2023/10/27 05:10:16;;;;;;;6.50;3.00;;;;;;;14.66;100.00;63507.59;5034559;28;20222;-83
2023/10/27 05:12:43;;;;;;;6.00;2.72;;;;;;;14.83;100.00;63530.91;5031006;28;20490;-82
2023/10/27 05:15:11;;;;;;;3.53;2.55;;;;;;;14.69;100.00;63518.91;5031420;28;20241;-83
2023/10/27 05:17:38;;;;;;;5.32;2.92;;;;;;;14.76;100.00;63517.97;5022181;28;20273;-83
2023/10/27 05:20:07;;;;;;;8.75;3.20;;;;;;;14.78;100.00;63520.06;5012207;28;20215;-84
2023/10/27 05:22:34;;;;;;;6.93;2.85;;;;;;;14.84;100.00;63531.44;5028656;28;20198;-82
2023/10/27 05:25:06;;;;;;;5.40;3.08;;;;;;;14.81;100.00;63523.69;5034283;28;20202;-84
2023/10/27 05:27:33;;;;;;;8.05;3.22;;;;;;;14.77;100.00;63521.59;5025048;28;20391;-82
2023/10/27 05:30:00;;;;;;;11.05;3.55;;;;;;;14.92;100.00;63537.69;5031553;28;20202;-83
2023/10/27 05:32:27;;;;;;;5.63;3.10;;;;;;;15.12;100.00;63554.88;5031397;28;20191;-83
2023/10/27 05:34:54;;;;;;;10.05;3.63;;;;;;;15.22;100.00;63570.91;5041716;28;20233;-82
2023/10/27 05:37:23;;;;;;;5.78;3.60;;;;;;;15.22;100.00;63570.38;5026359;28;20247;-80
2023/10/27 05:39:50;;;;;;;7.35;4.47;;;;;;;15.28;100.00;63577.13;5025625;28;20201;-83
2023/10/27 05:42:18;;;;;;;6.70;3.92;;;;;;;15.32;100.00;63583.34;5029407;28;20222;-83
2023/10/27 05:44:45;;;;;;;6.95;4.10;;;;;;;15.54;100.00;63603.66;5030863;28;20191;-83
2023/10/27 05:47:13;;;;;;;5.32;3.58;;;;;;;15.60;100.00;63609.91;5014391;28;20257;-81
2023/10/27 05:49:40;;;;;;;6.70;3.65;;;;;;;15.62;100.00;63609.94;5029865;28;20237;-83
2023/10/27 05:52:07;;;;;;;8.60;3.65;;;;;;;15.71;100.00;63623.91;5026942;28;20229;-82
2023/10/27 05:54:34;;;;;;;4.88;3.25;;;;;;;15.83;100.00;63631.78;5034098;28;20237;-83
2023/10/27 05:57:02;;;;;;;7.68;2.83;;;;;;;15.95;100.00;63646.28;5030923;28;20261;-84
2023/10/27 05:59:31;;;;;;;6.20;3.05;;;;;;;15.99;100.00;63647.88;5015622;28;20209;-84
2023/10/27 06:01:58;;;;;;;7.93;3.30;;;;;;;16.02;100.00;63656.13;5028160;28;20277;-82
2023/10/27 06:04:26;;;;;;;6.30;3.25;;;;;;;16.11;100.00;63658.31;5029838;28;20519;-83
2023/10/27 06:06:53;;;;;;;4.45;3.35;;;;;;;16.22;100.00;63674.38;5032065;28;20218;-80
2023/10/27 06:09:20;;;;;;;6.43;3.78;;;;;;;16.15;100.00;63667.59;5033970;28;20218;-82
2023/10/27 06:11:48;;;;;;;7.82;4.05;;;;;;;16.21;100.00;63673.31;5030535;28;20221;-82
2023/10/27 06:14:15;;;;;;;3.00;2.80;;;;;;;16.27;100.00;63676.47;5017228;28;20504;-84
2023/10/27 06:16:44;;;;;;;11.43;3.55;;;;;;;16.23;100.00;63672.84;5011667;28;20222;-83
2023/10/27 06:19:10;;;;;;;10.35;3.83;;;;;;;16.27;100.00;63676.47;5021477;28;20229;-82
2023/10/27 06:21:38;;;;;;;4.07;3.05;;;;;;;16.39;100.00;63691.53;5016127;28;20230;-83
2023/10/27 06:24:10;;;;;;;6.47;2.72;;;;;;;16.32;100.00;63684.78;5033262;28;20194;-82
2023/10/27 06:26:37;;;;;;;3.80;2.67;;;;;;;16.21;100.00;63673.31;5028919;28;20256;-81
2023/10/27 06:29:04;;;;;;;7.68;3.03;;;;;;;16.46;100.00;63696.25;5024015;28;20203;-82
2023/10/27 06:31:32;;;;;;;6.47;3.10;;;;;;;16.50;100.00;63700.94;5031185;28;20294;-81
2023/10/27 06:34:01;;;;;;;9.77;3.42;;;;;;;16.42;100.00;63695.19;5029145;28;20225;-80
2023/10/27 06:36:32;;;;;;;3.75;2.50;;;;;;;16.44;100.00;63699.84;5030439;28;20246;-82
2023/10/27 06:39:01;;;;;;;4.75;2.95;;;;;;;16.53;100.00;63709.19;5026767;28;20198;-83
2023/10/27 06:41:28;;;;;;;9.02;2.35;;;;;;;16.70;100.00;63726.91;5030140;28;20218;-82
2023/10/27 06:43:55;;;;;;;2.85;2.55;;;;;;;16.75;100.00;63732.09;5030489;28;20391;-84
2023/10/27 06:46:22;;;;;;;6.97;2.17;;;;;;;16.92;100.00;63744.66;5031266;28;20256;-82
2023/10/27 06:48:52;;;;;;;5.60;3.10;;;;;;;16.76;100.00;63735.19;5014414;28;20249;-82
2023/10/27 06:51:21;;;;;;;5.50;2.55;;;;;;;16.79;100.00;63733.19;5014033;28;20282;-84
2023/10/27 06:53:49;;;;;;;6.00;2.83;;;;;;;16.84;100.00;63741.47;5029692;28;20382;-84
2023/10/27 06:56:16;;;;;;;4.93;2.63;;;;;;;17.01;100.00;63758.66;5026200;28;20230;-84
2023/10/27 06:58:43;;;;;;;5.35;2.63;;;;;;;17.11;100.00;63767.00;5012918;28;20221;-84
2023/10/27 07:01:15;;;;;;;3.75;2.00;;;;;;;17.14;99.66;63767.03;5011823;28;20229;-83
2023/10/27 07:03:47;;;;;;;4.35;2.28;;;;;;;17.26;100.00;63780.03;5031081;28;20222;-83
2023/10/27 07:06:15;;;;;;;4.85;2.33;;;;;;;17.13;98.54;63768.56;5031552;28;20598;-82
2023/10/27 07:08:47;;;;;;;6.82;2.83;;;;;;;17.02;100.00;63757.63;5038848;28;20205;-83
2023/10/27 07:11:16;;;;;;;6.22;3.78;;;;;;;17.11;100.00;63772.16;5038630;28;20225;-83
2023/10/27 07:13:43;;;;;;;4.68;3.80;;;;;;;17.16;100.00;63769.09;5026715;28;20221;-82
2023/10/27 07:16:11;;;;;;;7.97;3.58;;;;;;;17.33;100.00;63789.38;5020061;28;20233;-84
2023/10/27 07:18:39;;;;;;;6.18;3.35;;;;;;;17.57;100.00;63813.88;5027238;28;20242;-83
2023/10/27 07:21:07;;;;;;;3.53;3.25;;;;;;;17.67;98.81;63824.28;5027175;28;20237;-82
2023/10/27 07:23:37;;;;;;;4.70;2.60;;;;;;;17.57;96.46;63811.28;5024706;28;20198;-81
2023/10/27 07:26:14;;;;;;;6.40;3.83;;;;;;;17.61;94.20;63818.56;5034273;28;20533;-82
2023/10/27 07:28:42;;;;;;;7.65;2.70;;;;;;;17.84;91.98;63841.97;5032490;28;20194;-83
2023/10/27 07:31:09;;;;;;;6.07;3.00;;;;;;;17.97;92.99;63852.94;5023584;28;20225;-83
2023/10/27 07:33:38;;;;;;;3.75;2.47;;;;;;;18.03;91.23;63862.28;5028493;28;20198;-82
2023/10/27 07:36:06;;;;;;;4.80;2.55;;;;;;;18.08;88.63;63870.09;5028658;28;20322;-83
2023/10/27 07:38:34;;;;;;;5.80;3.28;;;;;;;18.23;86.82;63885.72;5032115;28;20204;-82
2023/10/27 07:41:03;;;;;;;9.77;2.78;;;;;;;18.11;87.63;63867.53;5028735;28;20221;-81
2023/10/27 07:43:32;;;;;;;3.78;2.58;;;;;;;18.01;86.50;63862.28;5028914;28;20541;-83
2023/10/27 07:46:01;;;;;;;8.43;3.25;;;;;;;18.24;87.28;63881.59;5027291;28;20221;-83
2023/10/27 07:48:28;;;;;;;4.95;2.47;;;;;;;18.35;82.64;63895.09;5028253;28;20198;-82
2023/10/27 07:50:57;;;;;;;3.10;2.38;;;;;;;18.43;81.43;63906.56;5030841;28;20233;-82
2023/10/27 07:53:24;;;;;;;3.08;2.30;;;;;;;18.41;80.51;63903.97;5033711;28;20189;-82
2023/10/27 07:55:52;;;;;;;5.05;3.08;;;;;;;18.73;79.68;63931.63;5029776;28;20234;-81
2023/10/27 07:58:21;;;;;;;5.60;2.22;;;;;;;18.95;79.28;63960.25;5027092;28;20262;-82
2023/10/27 08:00:51;;;;;;;3.97;2.33;;;;;;;19.26;77.46;63986.88;5029278;28;20252;-83
2023/10/27 08:03:18;;;;;;;2.92;2.55;;;;;;;19.29;73.11;63990.53;5029658;28;20194;-84
2023/10/27 08:05:45;;;;;;;4.60;2.55;;;;;;;19.10;73.14;63970.19;5028787;28;20237;-83
2023/10/27 08:08:12;;;;;;;5.28;2.45;;;;;;;18.90;77.00;63951.91;5032150;28;20506;-81
2023/10/27 08:10:40;;;;;;;4.70;3.00;;;;;;;18.74;77.56;63935.25;5029527;28;20226;-82
2023/10/27 08:13:07;;;;;;;7.22;2.60;;;;;;;18.72;78.07;63928.53;5025867;28;20199;-81
2023/10/27 08:15:35;;;;;;;8.07;2.80;;;;;;;19.04;77.79;63972.22;5031337;28;20268;-83
2023/10/27 08:18:04;;;;;;;6.00;2.72;;;;;;;19.35;78.36;63999.38;5031046;28;20279;-82
2023/10/27 08:20:31;;;;;;;6.03;2.80;;;;;;;19.42;75.70;64008.75;5026142;28;20266;-83
2023/10/27 08:22:59;;;;;;;5.25;2.65;;;;;;;19.24;74.58;63990.47;5026652;28;20465;-82
2023/10/27 08:25:26;;;;;;;8.50;2.97;;;;;;;18.92;76.96;63954.53;5024064;28;20225;-81
2023/10/27 08:27:53;;;;;;;3.20;2.35;;;;;;;19.01;78.74;63961.34;5025175;28;20202;-83
2023/10/27 08:30:20;;;;;;;7.07;3.15;;;;;;;19.28;79.63;63997.22;5031467;28;20214;-81
2023/10/27 08:32:47;;;;;;;6.95;3.08;;;;;;;19.24;75.03;63987.38;5022944;28;20208;-81
2023/10/27 08:35:16;;;;;;;4.00;3.58;;;;;;;18.62;79.92;63925.84;5028815;28;20217;-82
2023/10/27 08:37:44;;;;;;;9.02;3.45;;;;;;;18.53;81.18;63915.94;5027436;28;20190;-82
2023/10/27 08:40:12;;;;;;;4.93;3.13;;;;;;;18.42;81.96;63905.00;5023126;28;20195;-82
2023/10/27 08:42:40;;;;;;;5.20;3.53;;;;;;;18.52;84.92;63915.41;5025739;28;20182;-80
2023/10/27 08:45:08;;;;;;;4.38;3.00;;;;;;;18.60;83.74;63926.34;5025352;28;20217;-82
2023/10/27 08:47:36;;;;;;;7.65;3.50;;;;;;;18.67;83.37;63925.91;5025224;28;20195;-83
2023/10/27 08:50:04;;;;;;;6.88;3.05;;;;;;;18.64;84.92;63922.75;5028637;28;20205;-83
2023/10/27 08:52:34;;;;;;;4.82;3.15;;;;;;;18.96;82.33;63958.72;5027198;28;20198;-81
2023/10/27 08:55:03;;;;;;;9.55;3.70;;;;;;;19.08;80.93;63970.69;5026053;28;20229;-81
2023/10/27 08:57:31;;;;;;;6.88;3.28;;;;;;;19.25;80.75;63986.38;5023991;28;20186;-82
2023/10/27 08:59:58;;;;;;;6.47;2.83;;;;;;;19.42;77.90;64006.16;5029287;28;20198;-80
2023/10/27 09:02:30;;;;;;;10.48;3.60;;;;;;;19.41;78.37;64005.13;5025075;28;20233;-82
2023/10/27 09:05:03;;;;;;;7.60;4.05;;;;;;;19.67;75.46;64029.13;5022308;28;20195;-82
2023/10/27 09:07:32;;;;;;;6.63;3.03;;;;;;;19.62;75.14;64031.66;5022585;28;20487;-79
2023/10/27 09:09:59;;;;;;;5.05;3.03;;;;;;;19.92;72.94;64057.78;5025017;28;20269;-81
2023/10/27 09:12:30;;;;;;;2.92;2.72;;;;;;;20.09;71.82;64078.63;5023560;28;20201;-81
2023/10/27 09:15:00;;;;;;;3.58;3.00;;;;;;;20.28;69.64;64095.38;5029370;28;20224;-81
2023/10/27 09:17:29;;;;;;;12.07;2.72;;;;;;;20.46;69.03;64117.28;5025830;28;20264;-83
2023/10/27 09:20:08;;;;;;;8.60;2.42;;;;;;;20.46;64.91;64111.56;5025172;28;20206;-81
2023/10/27 09:22:37;;;;;;;4.25;2.50;;;;;;;20.67;65.39;64136.09;5020900;28;20198;-84
2023/10/27 09:25:14;;;;;;;2.95;2.65;;;;;;;20.85;64.78;64152.28;5027822;28;20216;-81
2023/10/27 09:27:45;;;;;;;7.82;2.20;;;;;;;20.94;64.45;64166.84;5027409;28;20201;-82
2023/10/27 09:30:14;;;;;;;6.68;2.42;;;;;;;21.21;63.36;64192.47;5031725;28;20194;-82
2023/10/27 09:32:42;;;;;;;2.83;2.33;;;;;;;21.47;60.84;64222.22;5030456;28;20209;-82
2023/10/27 09:35:13;;;;;;;6.63;2.88;;;;;;;21.57;59.66;64226.97;5021466;28;20226;-82
2023/10/27 09:37:42;;;;;;;2.35;2.00;;;;;;;21.52;58.77;64224.84;5022723;28;20194;-82
2023/10/27 09:40:11;;;;;;;4.93;2.30;;;;;;;21.74;57.80;64247.31;5025597;28;20199;-82
2023/10/27 09:42:39;;;;;;;3.88;2.13;;;;;;;21.81;56.81;64257.25;5027997;28;20213;-83
2023/10/27 09:45:11;;;;;;;3.42;1.98;;;;;;;21.89;56.68;64260.44;5029637;28;20198;-83
2023/10/27 09:47:46;;;;;;;4.13;2.22;;;;;;;22.08;57.37;64287.53;5019834;28;20272;-82
2023/10/27 09:50:15;;;;;;;4.35;2.08;;;;;;;22.29;56.24;64301.69;5025638;28;20204;-81
2023/10/27 09:52:45;;;;;;;3.90;2.17;;;;;;;22.45;54.60;64323.63;5029064;28;20204;-82
2023/10/27 09:55:17;;;;;;;5.18;1.83;;;;;;;21.92;54.26;64270.81;5023827;28;20197;-81
2023/10/27 09:57:45;;;;;;;6.30;2.38;;;;;;;21.93;53.88;64274.97;5028082;28;20273;-83
2023/10/27 10:00:15;;;;;;;5.95;2.10;;;;;;;21.69;52.81;64242.09;5024818;28;20438;-82
2023/10/27 10:02:44;;;;;;;3.38;1.95;;;;;;;21.54;52.77;64229.00;5018683;28;20264;-82
2023/10/27 10:05:11;;;;;;;3.70;2.22;;;;;;;21.61;53.69;64234.25;5016610;28;20210;-82
2023/10/27 10:07:41;;;;;;;2.50;2.30;;;;;;;21.74;53.11;64250.44;5019663;28;20195;-84
2023/10/27 10:10:21;;;;;;;4.03;2.10;;;;;;;21.58;52.90;64230.59;5029363;28;20207;-81
2023/10/27 10:13:02;;;;;;;5.70;3.28;;;;;;;21.74;52.33;64249.91;5030012;28;20206;-81
2023/10/27 10:15:31;;;;;;;4.43;2.42;;;;;;;21.74;52.72;64247.31;5026225;28;20225;-83
2023/10/27 10:18:07;;;;;;;2.78;1.77;;;;;;;21.99;52.04;64280.72;5032273;28;20213;-82
2023/10/27 10:20:56;;;;;;;2.10;1.48;;;;;;;22.17;50.71;64294.34;5025888;28;20239;-81
2023/10/27 10:23:24;;;;;;;3.22;2.17;;;;;;;21.48;53.00;64225.34;5027600;28;20205;-81
2023/10/27 10:25:54;;;;;;;2.97;1.65;;;;;;;21.41;52.58;64215.44;5029016;28;20246;-81
2023/10/27 10:28:29;;;;;;;4.93;1.85;;;;;;;21.14;54.76;64184.66;5028417;28;20194;-81
2023/10/27 10:31:24;;;;;;;3.83;2.10;;;;;;;21.25;54.92;64201.84;5024559;28;20428;-81
2023/10/27 10:34:08;;;;;;;4.80;2.08;;;;;;;21.27;54.84;64198.75;5024204;28;20261;-82
2023/10/27 10:36:36;;;;;;;2.50;1.50;;;;;;;21.29;54.63;64200.31;5018256;28;20319;-81
2023/10/27 10:39:05;;;;;;;5.07;2.47;;;;;;;21.62;53.69;64240.47;5024536;28;20199;-82
2023/10/27 10:42:05;;;;;;;7.47;2.85;;;;;;;21.79;53.80;64255.66;5029514;28;20251;-80
2023/10/27 10:44:33;;;;;;;3.70;1.88;;;;;;;22.02;51.48;64278.69;5021810;28;20261;-81
2023/10/27 10:47:06;;;;;;;3.35;1.45;;;;;;;21.84;51.45;64254.66;5024871;28;20217;-80
2023/10/27 10:49:35;;;;;;;3.35;1.58;;;;;;;21.84;50.62;64257.25;5027138;28;20217;-82
2023/10/27 10:52:02;;;;;;;3.45;2.05;;;;;;;21.93;50.27;64271.84;5027825;28;20222;-82
2023/10/27 10:54:32;;;;;;;6.75;6.15;;;;;;;22.22;49.34;64297.50;5031270;28;20253;-84
2023/10/27 10:57:07;;;;;;;1.92;1.30;;;;;;;22.43;48.53;64318.94;5026033;28;20230;-82
2023/10/27 10:59:35;;;;;;;2.67;1.50;;;;;;;22.85;48.45;64365.97;5030012;28;20205;-81
2023/10/27 11:02:04;;;;;;;1.67;1.58;;;;;;;22.82;46.97;64355.06;5025468;28;20222;-83
2023/10/27 11:04:35;;;;;;;2.35;1.23;;;;;;;22.48;47.86;64324.16;5026281;28;20219;-81
2023/10/27 11:07:04;;;;;;;2.05;1.75;;;;;;;22.34;48.52;64315.25;5025650;28;20237;-81
2023/10/27 11:09:32;;;;;;;5.53;2.00;;;;;;;22.64;48.69;64341.41;5025495;28;20198;-81
2023/10/27 11:12:00;;;;;;;3.55;1.10;;;;;;;22.90;46.31;64373.28;5023327;28;20260;-84
2023/10/27 11:14:39;;;;;;;1.60;1.50;;;;;;;22.75;46.66;64355.00;5032537;28;20209;-84
2023/10/27 11:17:11;;;;;;;2.97;1.52;;;;;;;22.17;48.24;64289.16;5035561;28;20335;-80
2023/10/27 11:19:53;;;;;;;3.35;1.38;;;;;;;22.41;48.80;64319.97;5024823;28;20206;-81
2023/10/27 11:22:24;;;;;;;1.63;1.25;;;;;;;22.49;48.61;64325.19;5034244;28;20266;-83
2023/10/27 11:24:52;;;;;;;1.20;1.20;;;;;;;22.21;47.71;64293.34;5033966;28;20195;-80
2023/10/27 11:27:28;;;;;;;6.85;1.60;;;;;;;22.13;48.93;64287.56;5024884;28;20270;-81
2023/10/27 11:30:01;;;;;;;1.60;1.50;;;;;;;22.07;50.67;64278.72;5026906;28;20202;-82
2023/10/27 11:32:31;;;;;;;1.60;1.27;;;;;;;22.08;49.15;64285.47;5030326;28;20214;-79